LiveATC.Net - Listen to live air traffic control over the Internet!


ICAO: KTCM  IATA: TCM   Airport: McChord Field Airport (Joint Base Lewis-McChord)
City: Tacoma   State/Province: Washington
Country: United States   Continent: North America
KTCM METAR Weather: KTCM 270858Z AUTO 00000KT 10SM OVC037 03/01 A3044 RMK AO2 SLP314 T00310010 58007 $
KTCM Flight Activity (FlightAware)
KTCM Airport Info   (iFlightPlanner)
KTCM VFR Sectional Chart   (iFlightPlanner) 
KTCM IFR Low Chart   (iFlightPlanner) 

KTCM Gnd/Twr/Misc
Feed Status: DOWN
Last heard on: 2020-10-27 00:08:05 (0 days 10 hours 6 minutes ago)
Archive Access: KTCM Gnd/Twr/Misc
FacilityFrequency
Command Post134.100
Emergency/Guard121.500
McChord Ground118.175
McChord Ground279.650
McChord Tower124.800
McChord Tower259.300
PTD372.200

NOTICE

Unauthorized use prohibited. See LiveATC.net Terms of Service


Airport/ARTCC Code
Frequency Search
(e.g., 124.400, 128.75)
Site-wide search
 


Browse Feeds
Top 50 Feeds
Coverage Map
Bad Weather Areas

LiveATC FAQ
Offer LiveATC feed
Contact LiveATC.net
Press Inquiries

LiveATC on iPhone
LiveATC on Android

Windows Phone
Windows 8/10

LiveATC Mobile
(Mobile browser)

ATC Audio Archives
Interesting Recordings

LiveATC Forums


Home Page
About LiveATC.net
Make a Donation
Terms of Use
Privacy Policy

Canadian Air Freqs

AIRMETs/SIGMETs

FAA Airport Status
Nat'l Airspace Status
Arrival Demand Charts


Server Software By:
Icecast.org
Liquidsoap